createdAt,value
2019-03-30T00:02:00.758Z,37.90
2019-03-30T00:04:57.799Z,38.10
2019-03-30T00:07:55.055Z,38.40
2019-03-30T00:10:51.950Z,38.60
2019-03-30T00:13:48.876Z,38.80
2019-03-30T00:16:46.281Z,39.00
2019-03-30T00:19:42.982Z,39.30
2019-03-30T00:22:41.051Z,39.50
2019-03-30T00:25:40.363Z,39.60
2019-03-30T00:28:37.041Z,39.70
2019-03-30T00:31:33.893Z,40.00
2019-03-30T00:34:31.657Z,40.10
2019-03-30T00:37:28.442Z,40.30
2019-03-30T00:40:25.219Z,40.40
2019-03-30T00:43:21.960Z,40.40
2019-03-30T00:46:18.849Z,40.50
2019-03-30T00:49:15.428Z,40.50
2019-03-30T00:52:12.383Z,40.70
2019-03-30T00:55:09.449Z,40.80
2019-03-30T00:58:05.784Z,41.00
2019-03-30T01:01:02.587Z,41.10
2019-03-30T01:03:59.915Z,41.10
2019-03-30T01:06:56.531Z,41.20
2019-03-30T01:09:53.243Z,41.50
2019-03-30T01:12:50.107Z,41.90
2019-03-30T01:15:47.498Z,42.00
2019-03-30T01:18:44.010Z,42.30
2019-03-30T01:21:40.275Z,42.40
2019-03-30T01:24:37.202Z,42.50
2019-03-30T01:27:33.873Z,42.70
2019-03-30T01:30:30.574Z,42.80
2019-03-30T01:33:27.448Z,42.70
2019-03-30T01:36:24.132Z,42.60
2019-03-30T01:39:20.884Z,42.60
2019-03-30T01:42:17.343Z,42.80
2019-03-30T01:45:14.444Z,42.70
2019-03-30T01:48:10.894Z,42.30
2019-03-30T01:51:07.679Z,41.80
2019-03-30T01:54:04.997Z,41.40
2019-03-30T01:57:01.962Z,41.20
2019-03-30T01:59:58.330Z,41.00
2019-03-30T02:02:54.724Z,40.90
2019-03-30T02:05:51.091Z,40.70
2019-03-30T02:08:47.202Z,40.40
2019-03-30T02:11:43.598Z,40.10
2019-03-30T02:14:40.493Z,39.90
2019-03-30T02:17:37.296Z,39.70
2019-03-30T02:20:42.905Z,39.30
2019-03-30T02:23:39.297Z,39.00
2019-03-30T02:26:36.366Z,39.00
2019-03-30T02:29:35.903Z,39.00
2019-03-30T02:32:31.019Z,39.00
2019-03-30T02:35:27.892Z,39.10
2019-03-30T02:38:25.182Z,39.10
2019-03-30T02:41:23.487Z,39.00
2019-03-30T02:44:21.854Z,38.70
2019-03-30T02:47:18.661Z,38.40
2019-03-30T02:50:15.056Z,38.30
2019-03-30T02:53:11.914Z,38.50
2019-03-30T02:56:08.903Z,38.40
2019-03-30T02:59:05.788Z,38.30
2019-03-30T03:02:02.989Z,38.20
2019-03-30T03:04:59.963Z,38.10
2019-03-30T03:07:59.861Z,38.00
2019-03-30T03:10:57.483Z,37.90
2019-03-30T03:13:55.850Z,37.70
2019-03-30T03:16:52.545Z,37.70
2019-03-30T03:19:48.916Z,37.50
2019-03-30T03:22:45.932Z,37.10
2019-03-30T03:25:43.183Z,36.80
2019-03-30T03:28:40.168Z,36.70
2019-03-30T03:31:37.004Z,36.80
2019-03-30T03:34:33.720Z,36.90
2019-03-30T03:37:43.556Z,37.00
2019-03-30T03:40:27.167Z,37.20
2019-03-30T03:43:24.065Z,37.20
2019-03-30T03:46:20.424Z,37.10
2019-03-30T03:49:17.325Z,37.20
2019-03-30T03:52:13.986Z,37.00
2019-03-30T03:55:11.072Z,36.60
2019-03-30T03:58:08.603Z,36.00
2019-03-30T04:01:06.896Z,35.50
2019-03-30T04:04:04.312Z,34.90
2019-03-30T04:07:02.320Z,34.30
2019-03-30T04:10:00.530Z,33.70
2019-03-30T04:12:57.090Z,32.90
2019-03-30T04:15:53.706Z,32.10
2019-03-30T04:18:51.207Z,31.70
2019-03-30T04:21:47.929Z,31.70
2019-03-30T04:24:44.804Z,31.50
2019-03-30T04:27:42.340Z,31.40
2019-03-30T04:30:38.872Z,31.20
2019-03-30T04:33:35.516Z,31.30
2019-03-30T04:36:32.650Z,31.40
2019-03-30T04:39:30.976Z,31.70
2019-03-30T04:42:28.533Z,31.80
2019-03-30T04:45:25.556Z,31.80
2019-03-30T04:48:22.819Z,31.70
2019-03-30T04:51:19.588Z,31.60
2019-03-30T04:54:16.775Z,31.60
2019-03-30T04:57:14.714Z,31.90
2019-03-30T05:00:51.678Z,31.80
2019-03-30T05:03:48.448Z,31.80
2019-03-30T05:06:47.620Z,31.90
2019-03-30T05:09:44.629Z,31.80
2019-03-30T05:12:41.640Z,31.70
2019-03-30T05:15:38.541Z,31.70
2019-03-30T05:19:14.090Z,31.80
2019-03-30T05:22:16.581Z,31.80
2019-03-30T05:25:10.789Z,32.00
2019-03-30T05:28:07.985Z,31.80
2019-03-30T05:31:06.520Z,31.70
2019-03-30T05:34:03.477Z,31.10
2019-03-30T05:37:08.649Z,31.00
2019-03-30T05:40:06.776Z,31.20
2019-03-30T05:43:03.583Z,30.70
2019-03-30T05:46:00.524Z,30.10
2019-03-30T05:49:00.725Z,30.00
2019-03-30T05:51:58.150Z,29.60
2019-03-30T05:55:04.222Z,29.50
2019-03-30T05:58:01.993Z,29.30
2019-03-30T06:00:58.730Z,29.10
2019-03-30T06:03:56.021Z,28.70
2019-03-30T06:06:54.339Z,28.60
2019-03-30T06:09:51.185Z,28.50
2019-03-30T06:12:48.117Z,28.30
2019-03-30T06:15:57.326Z,28.20
2019-03-30T06:19:17.852Z,27.90
2019-03-30T06:22:19.181Z,27.70
2019-03-30T06:25:18.884Z,27.60
2019-03-30T06:28:16.643Z,27.30
2019-03-30T06:31:16.126Z,27.10
2019-03-30T06:34:13.837Z,26.40
2019-03-30T06:37:11.372Z,26.10
2019-03-30T06:40:09.304Z,26.30
2019-03-30T06:55:36.721Z,25.10
2019-03-30T06:58:37.092Z,25.20
2019-03-30T07:01:34.955Z,25.10
2019-03-30T07:04:35.381Z,25.10
2019-03-30T07:10:56.461Z,24.10
2019-03-30T07:13:57.021Z,24.80
2019-03-30T07:16:55.260Z,24.90
2019-03-30T07:19:56.092Z,24.90
2019-03-30T07:23:12.842Z,25.00
2019-03-30T07:26:09.053Z,24.80
2019-03-30T07:29:05.952Z,24.90
2019-03-30T07:32:03.357Z,24.60
2019-03-30T07:35:04.579Z,24.40
2019-03-30T07:38:07.019Z,24.20
2019-03-30T07:42:02.832Z,23.90
2019-03-30T07:45:33.449Z,23.70
2019-03-30T07:48:52.706Z,23.80
2019-03-30T07:51:49.710Z,23.80
2019-03-30T07:54:49.350Z,23.60
2019-03-30T07:57:47.939Z,23.60
2019-03-30T08:00:47.435Z,23.30
2019-03-30T08:03:54.846Z,23.20
2019-03-30T08:10:41.001Z,23.20
2019-03-30T08:13:37.367Z,23.30
2019-03-30T08:16:38.422Z,23.20
2019-03-30T08:19:36.213Z,23.20
2019-03-30T08:22:33.315Z,22.90
2019-03-30T08:25:31.597Z,22.50
2019-03-30T08:28:29.496Z,22.30
2019-03-30T08:31:26.545Z,22.20
2019-03-30T08:34:24.684Z,22.00
2019-03-30T08:37:23.276Z,22.00
2019-03-30T08:40:20.235Z,21.60
2019-03-30T08:43:16.952Z,20.90
2019-03-30T08:46:14.070Z,20.90
2019-03-30T08:49:12.876Z,21.00
2019-03-30T08:52:10.505Z,20.90
2019-03-30T08:55:07.897Z,21.00
2019-03-30T08:58:06.039Z,20.80
2019-03-30T09:01:09.342Z,20.80
2019-03-30T09:04:07.370Z,20.60
2019-03-30T09:07:04.935Z,20.60
2019-03-30T09:10:01.244Z,20.90
2019-03-30T09:12:59.535Z,20.60
2019-03-30T09:15:56.838Z,20.00
2019-03-30T09:18:59.321Z,19.60
2019-03-30T09:21:58.990Z,19.80
2019-03-30T09:25:00.527Z,19.60
2019-03-30T09:27:59.039Z,19.60
2019-03-30T09:30:56.904Z,19.80
2019-03-30T09:33:54.354Z,20.00
2019-03-30T09:36:53.200Z,20.00
2019-03-30T09:39:50.515Z,20.10
2019-03-30T09:42:49.608Z,19.80
2019-03-30T09:45:47.514Z,19.90
2019-03-30T09:48:44.510Z,19.70
2019-03-30T09:51:45.183Z,19.90
2019-03-30T09:54:44.035Z,20.00
2019-03-30T09:57:40.997Z,20.10
2019-03-30T10:00:45.993Z,20.00
2019-03-30T10:03:43.201Z,20.10
2019-03-30T10:06:39.959Z,19.90
2019-03-30T10:09:37.551Z,19.70
2019-03-30T10:12:34.374Z,19.40
2019-03-30T10:15:31.087Z,19.10
2019-03-30T10:18:32.183Z,19.10
2019-03-30T10:21:29.801Z,19.30
2019-03-30T10:24:38.105Z,19.30
2019-03-30T10:29:25.867Z,19.20
2019-03-30T10:32:12.546Z,18.90
2019-03-30T10:35:03.836Z,19.20
2019-03-30T10:38:04.405Z,19.20
2019-03-30T10:41:21.617Z,19.60
2019-03-30T10:47:24.215Z,19.40
2019-03-30T10:50:21.651Z,19.50
2019-03-30T10:53:22.280Z,19.60
2019-03-30T10:56:18.992Z,19.60
2019-03-30T10:59:15.171Z,19.60
2019-03-30T11:02:11.883Z,19.80
2019-03-30T11:05:10.246Z,19.70
2019-03-30T11:08:12.333Z,19.70
2019-03-30T11:11:12.017Z,19.90
2019-03-30T11:14:09.215Z,19.80
2019-03-30T11:17:06.590Z,20.10
2019-03-30T11:20:04.466Z,20.40
2019-03-30T11:23:04.827Z,20.60
2019-03-30T11:26:03.399Z,20.60
2019-03-30T11:29:03.629Z,20.70
2019-03-30T11:32:14.793Z,20.80
2019-03-30T11:35:42.727Z,20.70
2019-03-30T11:38:38.925Z,21.00
2019-03-30T11:41:37.238Z,21.10
2019-03-30T11:45:30.762Z,21.00
2019-03-30T11:49:05.112Z,21.00
2019-03-30T12:01:12.127Z,21.60
2019-03-30T12:14:41.216Z,22.10
2019-03-30T12:17:26.832Z,22.10
2019-03-30T12:20:45.012Z,22.40
2019-03-30T12:24:25.965Z,22.50
2019-03-30T12:27:51.286Z,22.60
2019-03-30T12:31:13.668Z,22.80
2019-03-30T12:34:42.161Z,23.00
2019-03-30T12:37:53.211Z,23.10
2019-03-30T12:41:11.166Z,23.20
2019-03-30T12:44:25.132Z,23.30
2019-03-30T12:47:34.674Z,23.40
2019-03-30T12:50:37.375Z,23.50
2019-03-30T12:53:57.889Z,23.80
2019-03-30T12:57:36.215Z,23.90
2019-03-30T13:00:45.903Z,24.10
2019-03-30T13:03:44.562Z,24.20
2019-03-30T13:06:42.188Z,24.80
2019-03-30T13:09:40.161Z,24.50
2019-03-30T13:12:38.985Z,24.70
2019-03-30T13:15:39.337Z,24.80
2019-03-30T13:18:39.081Z,24.90
2019-03-30T13:21:37.373Z,25.10
2019-03-30T13:24:36.565Z,25.10
2019-03-30T13:27:42.047Z,25.30
2019-03-30T13:30:48.603Z,25.40
2019-03-30T13:33:48.014Z,25.60
2019-03-30T13:37:16.145Z,25.70
2019-03-30T13:44:01.855Z,26.00
2019-03-30T13:47:03.289Z,26.00
2019-03-30T13:50:02.471Z,26.00
2019-03-30T13:53:04.929Z,26.00
2019-03-30T13:56:17.007Z,26.10
2019-03-30T13:59:10.765Z,26.20
2019-03-30T14:02:19.071Z,26.10
2019-03-30T14:09:08.002Z,26.70
2019-03-30T14:12:05.979Z,26.70
2019-03-30T14:15:04.725Z,26.70
2019-03-30T14:18:03.852Z,26.80
2019-03-30T14:21:03.492Z,26.90
2019-03-30T14:24:00.825Z,27.00
2019-03-30T14:26:59.029Z,27.10
2019-03-30T14:30:05.268Z,27.20
2019-03-30T14:33:07.755Z,27.30
2019-03-30T14:36:05.782Z,27.40
2019-03-30T14:39:03.284Z,27.50
2019-03-30T14:42:00.003Z,27.60
2019-03-30T14:44:58.339Z,27.70
2019-03-30T14:47:57.925Z,27.90
2019-03-30T14:50:55.275Z,28.00
2019-03-30T14:53:53.234Z,28.00
2019-03-30T14:56:51.086Z,28.20
2019-03-30T14:59:49.151Z,28.20
2019-03-30T15:02:46.911Z,28.30
2019-03-30T15:05:43.749Z,28.30
2019-03-30T15:08:43.479Z,28.40
2019-03-30T15:11:43.445Z,28.60
2019-03-30T15:14:41.882Z,28.70
2019-03-30T15:17:41.290Z,29.10
2019-03-30T15:20:41.211Z,28.90
2019-03-30T15:23:40.161Z,29.00
2019-03-30T15:26:37.756Z,29.20
2019-03-30T15:29:37.146Z,29.50
2019-03-30T15:32:35.095Z,29.50
2019-03-30T15:35:34.085Z,29.60
2019-03-30T15:38:32.414Z,29.70
2019-03-30T15:41:30.845Z,29.70
2019-03-30T15:44:27.749Z,29.80
2019-03-30T15:47:25.092Z,29.90
2019-03-30T15:50:24.585Z,30.00
2019-03-30T15:53:22.166Z,30.00
2019-03-30T15:56:20.524Z,30.00
2019-03-30T15:59:18.707Z,30.10
2019-03-30T16:02:16.489Z,30.10
2019-03-30T16:05:15.773Z,30.20
2019-03-30T16:08:12.238Z,30.30
2019-03-30T16:11:09.907Z,30.40
2019-03-30T16:14:07.577Z,30.30
2019-03-30T16:17:04.928Z,30.80
2019-03-30T16:20:02.551Z,30.70
2019-03-30T16:23:00.122Z,30.90
2019-03-30T16:26:00.112Z,30.90
2019-03-30T16:28:57.949Z,30.90
2019-03-30T16:31:55.130Z,30.80
2019-03-30T16:34:53.222Z,30.80
2019-03-30T16:37:51.560Z,31.00
2019-03-30T16:40:49.527Z,31.00
2019-03-30T16:43:48.137Z,31.00
2019-03-30T16:46:45.017Z,30.90
2019-03-30T16:49:42.183Z,31.00
2019-03-30T16:52:41.411Z,31.00
2019-03-30T16:55:38.709Z,31.00
2019-03-30T16:58:36.718Z,31.20
2019-03-30T17:01:34.159Z,31.30
2019-03-30T17:04:33.027Z,31.50
2019-03-30T17:07:30.575Z,31.70
2019-03-30T17:10:27.943Z,31.80
2019-03-30T17:13:25.364Z,32.00
2019-03-30T17:16:23.380Z,32.00
2019-03-30T17:19:21.203Z,32.10
2019-03-30T17:22:18.640Z,32.20
2019-03-30T17:25:17.977Z,32.20
2019-03-30T17:28:16.094Z,32.30
2019-03-30T17:31:13.483Z,32.20
2019-03-30T17:34:11.553Z,32.40
2019-03-30T17:37:14.229Z,32.50
2019-03-30T17:40:09.264Z,32.50
2019-03-30T17:43:07.603Z,32.70
2019-03-30T17:46:06.969Z,32.30
2019-03-30T17:49:04.600Z,33.20
2019-03-30T17:52:02.359Z,33.40
2019-03-30T17:55:00.725Z,33.40
2019-03-30T17:58:12.290Z,33.30
2019-03-30T18:00:57.364Z,32.60
2019-03-30T18:03:54.818Z,33.20
2019-03-30T18:06:52.923Z,33.20
2019-03-30T18:09:50.377Z,33.20
2019-03-30T18:12:47.232Z,33.10
2019-03-30T18:15:45.253Z,33.30
2019-03-30T18:18:42.784Z,33.30
2019-03-30T18:21:42.006Z,33.50
2019-03-30T18:24:39.297Z,33.50
2019-03-30T18:27:38.412Z,33.60
2019-03-30T18:30:44.415Z,33.50
2019-03-30T18:33:42.070Z,33.60
2019-03-30T18:36:40.040Z,33.50
2019-03-30T18:39:37.739Z,33.30
2019-03-30T18:42:35.280Z,33.20
2019-03-30T18:45:35.061Z,33.10
2019-03-30T18:48:32.517Z,32.90
2019-03-30T18:51:30.715Z,32.80
2019-03-30T18:54:28.021Z,32.90
2019-03-30T18:57:24.440Z,32.70
2019-03-30T19:00:21.913Z,32.90
2019-03-30T19:03:20.203Z,33.20
2019-03-30T19:06:16.959Z,33.40
2019-03-30T19:09:14.542Z,33.40
2019-03-30T19:12:10.935Z,33.50
2019-03-30T19:15:07.700Z,33.70
2019-03-30T19:18:04.438Z,33.40
2019-03-30T19:21:00.867Z,33.20
2019-03-30T19:23:57.271Z,33.00
2019-03-30T19:26:53.938Z,32.40
2019-03-30T19:29:50.477Z,31.90
2019-03-30T19:32:47.059Z,31.80
2019-03-30T19:35:43.616Z,31.50
2019-03-30T19:38:40.316Z,31.20
2019-03-30T19:41:37.141Z,31.70
2019-03-30T19:44:33.887Z,31.20
2019-03-30T19:47:30.610Z,31.20
2019-03-30T19:50:27.158Z,31.40
2019-03-30T19:53:23.899Z,31.60
2019-03-30T19:56:20.772Z,31.60
2019-03-30T19:59:17.394Z,31.50
2019-03-30T20:02:14.542Z,31.60
2019-03-30T20:05:12.005Z,31.70
2019-03-30T20:08:12.479Z,31.70
2019-03-30T20:11:06.335Z,31.90
2019-03-30T20:14:02.948Z,32.00
2019-03-30T20:17:00.530Z,32.00
2019-03-30T20:19:57.400Z,31.90
2019-03-30T20:22:54.738Z,31.90
2019-03-30T20:25:51.184Z,32.00
2019-03-30T20:28:47.626Z,32.00
2019-03-30T20:31:44.193Z,31.80
2019-03-30T20:34:40.798Z,31.50
2019-03-30T20:37:37.314Z,31.40
2019-03-30T20:40:33.679Z,31.20
2019-03-30T20:43:30.034Z,31.00
2019-03-30T20:46:26.704Z,30.80
2019-03-30T20:49:23.578Z,30.80
2019-03-30T20:52:20.381Z,30.90
2019-03-30T20:55:17.059Z,31.00
2019-03-30T20:58:13.522Z,31.30
2019-03-30T21:01:10.861Z,31.50
2019-03-30T21:04:09.607Z,31.50
2019-03-30T21:07:07.277Z,31.30
2019-03-30T21:10:04.487Z,31.10
2019-03-30T21:13:01.603Z,31.30
2019-03-30T21:15:58.483Z,31.40
2019-03-30T21:18:55.254Z,31.40
2019-03-30T21:21:51.777Z,31.60
2019-03-30T21:24:48.375Z,31.90
2019-03-30T21:27:45.880Z,32.00
2019-03-30T21:30:42.144Z,32.30
2019-03-30T21:33:38.697Z,32.70
2019-03-30T21:36:35.004Z,32.90
2019-03-30T21:39:31.811Z,33.10
2019-03-30T21:42:28.546Z,33.30
2019-03-30T21:45:24.972Z,33.60
2019-03-30T21:48:21.546Z,33.50
2019-03-30T21:51:19.054Z,33.70
2019-03-30T21:54:15.907Z,33.80
2019-03-30T21:57:12.237Z,33.80
2019-03-30T22:00:11.091Z,34.00
2019-03-30T22:03:05.610Z,33.80
2019-03-30T22:06:02.415Z,33.70
2019-03-30T22:08:59.563Z,33.40
2019-03-30T22:11:56.039Z,33.20
2019-03-30T22:14:53.369Z,33.70
2019-03-30T22:17:49.515Z,33.20
2019-03-30T22:20:46.934Z,33.10
2019-03-30T22:23:43.260Z,33.20
2019-03-30T22:26:40.653Z,33.30
2019-03-30T22:29:37.273Z,33.30
2019-03-30T22:32:33.638Z,33.40
2019-03-30T22:35:30.018Z,33.30
2019-03-30T22:38:26.719Z,33.40
2019-03-30T22:41:23.240Z,33.50
2019-03-30T22:44:19.958Z,33.50
2019-03-30T22:47:17.055Z,33.60
2019-03-30T22:50:13.724Z,33.70
2019-03-30T22:53:10.333Z,33.70
2019-03-30T22:56:06.707Z,33.70
2019-03-30T22:59:03.012Z,33.70
2019-03-30T23:01:59.584Z,33.90
2019-03-30T23:04:56.051Z,34.10
2019-03-30T23:07:53.236Z,34.40
2019-03-30T23:10:49.489Z,34.60
2019-03-30T23:13:45.878Z,34.80
2019-03-30T23:16:42.420Z,35.00
2019-03-30T23:19:38.950Z,35.10
2019-03-30T23:22:35.141Z,35.20
2019-03-30T23:25:31.899Z,35.30
2019-03-30T23:28:29.046Z,35.40
2019-03-30T23:31:25.525Z,35.50
2019-03-30T23:34:21.799Z,35.70
2019-03-30T23:37:18.253Z,35.90
2019-03-30T23:40:14.630Z,36.10
2019-03-30T23:43:11.108Z,36.20
2019-03-30T23:46:07.289Z,36.20
2019-03-30T23:49:03.626Z,36.30
2019-03-30T23:52:00.050Z,36.10
2019-03-30T23:54:57.273Z,36.20
2019-03-30T23:57:53.630Z,36.20
